createdAt,value
2023-04-03T00:00:22.411Z,6.00
2023-04-03T00:03:07.938Z,6.10
2023-04-03T00:05:53.408Z,6.10
2023-04-03T00:08:40.230Z,6.10
2023-04-03T00:11:26.140Z,6.10
2023-04-03T00:14:11.454Z,6.10
2023-04-03T00:16:56.733Z,6.10
2023-04-03T00:19:42.076Z,6.10
2023-04-03T00:22:29.542Z,6.20
2023-04-03T00:25:15.237Z,6.20
2023-04-03T00:28:01.136Z,6.10
2023-04-03T00:30:46.595Z,6.20
2023-04-03T00:33:32.016Z,6.20
2023-04-03T00:36:17.549Z,6.10
2023-04-03T00:39:02.699Z,6.20
2023-04-03T00:41:48.149Z,6.10
2023-04-03T00:44:36.592Z,6.20
2023-04-03T00:47:21.874Z,6.20
2023-04-03T00:50:08.000Z,6.20
2023-04-03T00:52:53.544Z,6.20
2023-04-03T00:55:39.606Z,6.20
2023-04-03T00:58:34.324Z,6.20
2023-04-03T01:01:24.229Z,6.30
2023-04-03T01:04:28.857Z,6.30
2023-04-03T01:07:24.381Z,6.30
2023-04-03T01:10:14.913Z,6.30
2023-04-03T01:13:01.507Z,6.20
2023-04-03T01:15:46.929Z,6.30
2023-04-03T01:18:34.345Z,6.30
2023-04-03T01:21:54.466Z,6.20
2023-04-03T01:24:40.156Z,6.30
2023-04-03T01:27:26.963Z,6.30
2023-04-03T01:30:15.170Z,6.30
2023-04-03T01:33:00.270Z,6.10
2023-04-03T01:35:45.995Z,6.10
2023-04-03T01:38:31.608Z,6.10
2023-04-03T01:41:17.747Z,6.10
2023-04-03T01:44:03.371Z,6.10
2023-04-03T01:46:48.665Z,6.10
2023-04-03T01:49:34.122Z,6.10
2023-04-03T01:52:19.450Z,6.10
2023-04-03T01:55:05.178Z,6.10
2023-04-03T01:57:50.796Z,6.10
2023-04-03T02:00:37.090Z,6.10
2023-04-03T02:03:23.381Z,6.00
2023-04-03T02:06:08.750Z,6.10
2023-04-03T02:08:53.955Z,6.10
2023-04-03T02:11:39.467Z,6.10
2023-04-03T02:14:24.878Z,6.10
2023-04-03T02:17:10.123Z,6.10
2023-04-03T02:19:55.630Z,6.10
2023-04-03T02:22:40.989Z,6.10
2023-04-03T02:25:26.969Z,6.10
2023-04-03T02:28:12.433Z,6.10
2023-04-03T02:30:57.974Z,6.10
2023-04-03T02:33:43.460Z,6.10
2023-04-03T02:36:29.653Z,6.10
2023-04-03T02:39:16.884Z,6.10
2023-04-03T02:42:01.936Z,6.10
2023-04-03T02:44:47.531Z,6.10
2023-04-03T02:47:32.612Z,6.10
2023-04-03T02:50:17.952Z,6.10
2023-04-03T02:53:03.378Z,6.10
2023-04-03T02:55:48.913Z,5.90
2023-04-03T02:58:34.023Z,5.90
2023-04-03T03:01:20.165Z,5.90
2023-04-03T03:04:05.377Z,5.90
2023-04-03T03:06:51.705Z,5.90
2023-04-03T03:09:37.077Z,6.00
2023-04-03T03:12:22.883Z,5.90
2023-04-03T03:15:09.070Z,5.90
2023-04-03T03:17:54.492Z,6.00
2023-04-03T03:20:39.732Z,5.90
2023-04-03T03:23:27.091Z,5.90
2023-04-03T03:26:12.576Z,5.90
2023-04-03T03:28:58.046Z,5.90
2023-04-03T03:31:43.426Z,5.80
2023-04-03T03:34:28.662Z,5.90
2023-04-03T03:37:14.106Z,5.90
2023-04-03T03:39:59.328Z,5.90
2023-04-03T03:42:44.828Z,5.90
2023-04-03T03:45:30.415Z,5.90
2023-04-03T03:48:15.851Z,5.90
2023-04-03T03:51:01.495Z,5.90
2023-04-03T03:53:46.626Z,5.80
2023-04-03T03:56:32.491Z,5.70
2023-04-03T03:59:17.651Z,5.70
2023-04-03T04:02:03.283Z,5.60
2023-04-03T04:04:50.071Z,5.70
2023-04-03T04:07:35.283Z,5.70
2023-04-03T04:10:21.174Z,5.70
2023-04-03T04:13:06.197Z,5.70
2023-04-03T04:15:51.689Z,5.60
2023-04-03T04:18:37.124Z,5.60
2023-04-03T04:21:22.581Z,5.50
2023-04-03T04:24:09.124Z,5.40
2023-04-03T04:26:54.413Z,5.40
2023-04-03T04:29:39.773Z,5.40
2023-04-03T04:32:25.299Z,5.40
2023-04-03T04:35:10.837Z,5.40
2023-04-03T04:37:56.399Z,5.40
2023-04-03T04:40:42.495Z,5.40
2023-04-03T04:43:27.751Z,5.20
2023-04-03T04:46:13.230Z,5.30
2023-04-03T04:48:58.480Z,5.30
2023-04-03T04:51:51.661Z,5.40
2023-04-03T04:54:37.383Z,5.40
2023-04-03T04:57:23.014Z,5.30
2023-04-03T05:00:08.804Z,5.40
2023-04-03T05:02:54.338Z,5.30
2023-04-03T05:05:40.114Z,5.30
2023-04-03T05:08:26.502Z,5.20
2023-04-03T05:11:11.936Z,5.10
2023-04-03T05:13:57.496Z,5.20
2023-04-03T05:16:43.094Z,5.20
2023-04-03T05:19:28.586Z,5.20
2023-04-03T05:22:14.013Z,5.20
2023-04-03T05:24:59.347Z,5.10
2023-04-03T05:27:44.781Z,5.00
2023-04-03T05:30:30.332Z,5.00
2023-04-03T05:33:15.873Z,4.90
2023-04-03T05:36:07.968Z,5.00
2023-04-03T05:38:53.849Z,5.10
2023-04-03T05:41:39.548Z,5.00
2023-04-03T05:44:24.973Z,5.10
2023-04-03T05:47:10.293Z,5.10
2023-04-03T05:49:55.547Z,5.00
2023-04-03T05:52:46.453Z,5.00
2023-04-03T05:55:32.139Z,5.00
2023-04-03T05:58:17.462Z,4.90
2023-04-03T06:01:03.044Z,4.70
2023-04-03T06:03:48.597Z,4.70
2023-04-03T06:06:52.960Z,4.70
2023-04-03T06:09:38.619Z,4.70
2023-04-03T06:12:24.594Z,4.60
2023-04-03T06:15:11.259Z,4.50
2023-04-03T06:17:56.413Z,4.60
2023-04-03T06:20:41.745Z,4.60
2023-04-03T06:23:27.196Z,4.50
2023-04-03T06:26:12.821Z,4.60
2023-04-03T06:28:58.003Z,4.70
2023-04-03T06:31:43.522Z,4.70
2023-04-03T06:34:29.053Z,4.80
2023-04-03T06:37:22.870Z,4.70
2023-04-03T06:40:12.174Z,4.80
2023-04-03T06:42:57.472Z,4.70
2023-04-03T06:45:42.801Z,4.70
2023-04-03T06:48:28.384Z,4.80
2023-04-03T06:51:21.546Z,4.90
2023-04-03T06:54:09.178Z,4.90
2023-04-03T06:56:54.479Z,4.80
2023-04-03T06:59:39.954Z,4.70
2023-04-03T07:02:25.370Z,4.80
2023-04-03T07:05:10.654Z,4.70
2023-04-03T07:07:56.402Z,4.60
2023-04-03T07:10:41.722Z,4.80
2023-04-03T07:13:27.565Z,4.90
2023-04-03T07:16:12.848Z,4.90
2023-04-03T07:18:58.777Z,4.80
2023-04-03T07:21:44.388Z,4.80
2023-04-03T07:24:29.649Z,4.90
2023-04-03T07:27:15.432Z,4.90
2023-04-03T07:30:00.908Z,4.90
2023-04-03T07:32:46.919Z,4.90
2023-04-03T07:35:32.210Z,5.10
2023-04-03T07:38:17.950Z,5.00
2023-04-03T07:41:04.468Z,4.80
2023-04-03T07:43:50.775Z,4.80
2023-04-03T07:46:36.565Z,4.80
2023-04-03T07:49:24.049Z,5.10
2023-04-03T07:52:10.015Z,5.20
2023-04-03T07:54:54.930Z,5.10
2023-04-03T07:57:41.198Z,5.00
2023-04-03T08:00:26.605Z,5.20
2023-04-03T08:03:12.921Z,5.10
2023-04-03T08:06:06.056Z,5.00
2023-04-03T08:08:53.020Z,5.00
2023-04-03T08:11:40.460Z,5.00
2023-04-03T08:14:25.727Z,4.90
2023-04-03T08:17:12.715Z,5.20
2023-04-03T08:19:58.080Z,5.00
2023-04-03T08:22:43.382Z,5.10
2023-04-03T08:25:30.444Z,5.30
2023-04-03T08:28:15.917Z,5.40
2023-04-03T08:31:07.048Z,5.60
2023-04-03T08:33:52.500Z,5.60
2023-04-03T08:36:38.453Z,5.60
2023-04-03T08:39:24.288Z,5.80
2023-04-03T08:42:44.832Z,6.10
2023-04-03T08:45:51.852Z,6.20
2023-04-03T08:48:41.901Z,6.20
2023-04-03T08:51:28.885Z,6.40
2023-04-03T08:54:35.081Z,6.30
2023-04-03T08:57:40.749Z,6.30
2023-04-03T09:00:31.112Z,6.50
2023-04-03T09:03:19.547Z,6.90
2023-04-03T09:06:19.677Z,7.00
2023-04-03T09:09:32.793Z,6.90
2023-04-03T09:12:29.141Z,6.90
2023-04-03T09:15:31.229Z,7.20
2023-04-03T09:18:47.345Z,7.20
2023-04-03T09:21:38.160Z,7.70
2023-04-03T09:24:24.860Z,7.80
2023-04-03T09:27:12.269Z,7.80
2023-04-03T09:29:58.949Z,7.80
2023-04-03T09:32:48.247Z,7.60
2023-04-03T09:35:47.165Z,7.50
2023-04-03T09:38:35.243Z,7.30
2023-04-03T09:41:20.893Z,7.20
2023-04-03T09:44:22.809Z,7.40
2023-04-03T09:47:25.300Z,7.60
2023-04-03T09:50:14.072Z,8.10
2023-04-03T09:52:59.742Z,8.20
2023-04-03T09:55:46.519Z,8.50
2023-04-03T09:58:49.893Z,8.70
2023-04-03T10:01:39.180Z,8.50
2023-04-03T10:04:25.345Z,8.60
2023-04-03T10:07:30.888Z,8.80
2023-04-03T10:10:16.063Z,8.70
2023-04-03T10:13:16.481Z,8.80
2023-04-03T10:16:15.710Z,9.10
2023-04-03T10:19:37.765Z,9.50
2023-04-03T10:22:46.604Z,9.40
2023-04-03T10:25:53.485Z,9.50
2023-04-03T10:29:12.708Z,9.20
2023-04-03T10:32:00.900Z,9.20
2023-04-03T10:35:02.339Z,9.50
2023-04-03T10:38:08.732Z,9.70
2023-04-03T10:41:01.668Z,9.80
2023-04-03T10:44:24.832Z,9.90
2023-04-03T10:47:23.003Z,9.70
2023-04-03T10:50:39.798Z,9.70
2023-04-03T10:53:28.011Z,9.80
2023-04-03T10:56:25.263Z,9.90
2023-04-03T10:59:29.527Z,9.90
2023-04-03T11:02:32.699Z,10.20
2023-04-03T11:05:33.530Z,10.20
2023-04-03T11:08:40.816Z,10.50
2023-04-03T11:11:30.841Z,10.60
2023-04-03T11:14:21.218Z,10.50
2023-04-03T11:17:06.648Z,10.80
2023-04-03T11:20:11.800Z,10.90
2023-04-03T11:23:05.461Z,11.40
2023-04-03T11:25:55.168Z,11.30
2023-04-03T11:28:41.683Z,11.50
2023-04-03T11:32:05.405Z,11.50
2023-04-03T11:34:55.426Z,11.70
2023-04-03T11:37:51.145Z,11.80
2023-04-03T11:40:38.732Z,11.90
2023-04-03T11:43:30.682Z,11.90
2023-04-03T11:46:17.357Z,11.90
2023-04-03T11:49:02.850Z,12.00
2023-04-03T11:51:48.471Z,12.20
2023-04-03T11:54:46.685Z,12.30
2023-04-03T11:57:58.531Z,12.20
2023-04-03T12:01:05.373Z,12.30
2023-04-03T12:03:50.541Z,12.40
2023-04-03T12:06:36.882Z,12.30
2023-04-03T12:09:36.040Z,12.50
2023-04-03T12:12:37.729Z,12.10
2023-04-03T12:15:48.548Z,12.10
2023-04-03T12:19:05.485Z,12.40
2023-04-03T12:22:08.437Z,12.40
2023-04-03T12:24:54.368Z,13.00
2023-04-03T12:27:43.176Z,13.20
2023-04-03T12:30:31.967Z,13.30
2023-04-03T12:33:45.549Z,13.50
2023-04-03T12:36:49.724Z,13.70
2023-04-03T12:40:03.056Z,13.80
2023-04-03T12:43:05.744Z,13.60
2023-04-03T12:46:01.508Z,13.30
2023-04-03T12:48:52.418Z,13.10
2023-04-03T12:51:45.474Z,13.40
2023-04-03T12:54:37.955Z,13.60
2023-04-03T12:57:27.454Z,13.60
2023-04-03T13:00:34.110Z,13.60
2023-04-03T13:03:25.495Z,13.00
2023-04-03T13:06:41.847Z,13.00
2023-04-03T13:09:29.842Z,13.10
2023-04-03T13:12:16.853Z,13.50
2023-04-03T13:15:13.729Z,13.50
2023-04-03T13:17:59.189Z,13.00
2023-04-03T13:20:44.511Z,12.90
2023-04-03T13:23:32.240Z,13.30
2023-04-03T13:26:19.598Z,13.40
2023-04-03T13:29:09.503Z,13.50
2023-04-03T13:31:57.542Z,13.70
2023-04-03T13:34:47.072Z,13.00
2023-04-03T13:37:35.963Z,12.80
2023-04-03T13:40:21.301Z,12.90
2023-04-03T13:43:18.871Z,13.30
2023-04-03T13:46:26.808Z,13.20
2023-04-03T13:49:23.254Z,13.20
2023-04-03T13:52:32.245Z,13.20
2023-04-03T13:55:27.148Z,12.80
2023-04-03T13:58:12.129Z,13.10
2023-04-03T14:01:08.845Z,13.60
2023-04-03T14:03:57.756Z,13.70
2023-04-03T14:06:43.131Z,13.90
2023-04-03T14:09:28.844Z,13.60
2023-04-03T14:12:30.688Z,13.30
2023-04-03T14:15:27.280Z,13.30
2023-04-03T14:18:14.378Z,13.20
2023-04-03T14:20:59.510Z,13.30
2023-04-03T14:23:45.080Z,13.20
2023-04-03T14:26:31.388Z,12.80
2023-04-03T14:29:16.954Z,12.80
2023-04-03T14:32:13.723Z,12.80
2023-04-03T14:35:01.931Z,12.80
2023-04-03T14:37:48.876Z,13.10
2023-04-03T14:40:34.167Z,13.30
2023-04-03T14:43:21.007Z,12.90
2023-04-03T14:46:12.448Z,12.90
2023-04-03T14:48:57.709Z,12.80
2023-04-03T14:51:42.850Z,12.90
2023-04-03T14:54:30.026Z,13.30
2023-04-03T14:57:17.180Z,13.50
2023-04-03T15:00:05.151Z,13.10
2023-04-03T15:02:50.805Z,13.30
2023-04-03T15:05:38.254Z,13.50
2023-04-03T15:08:30.249Z,13.60
2023-04-03T15:11:16.122Z,14.10
2023-04-03T15:14:01.455Z,14.10
2023-04-03T15:16:47.365Z,14.20
2023-04-03T15:19:41.806Z,14.20
2023-04-03T15:22:27.244Z,13.80
2023-04-03T15:25:13.439Z,13.70
2023-04-03T15:27:58.756Z,13.60
2023-04-03T15:30:44.071Z,13.20
2023-04-03T15:33:29.452Z,13.10
2023-04-03T15:36:23.013Z,13.00
2023-04-03T15:39:19.164Z,12.90
2023-04-03T15:42:07.060Z,12.50
2023-04-03T15:44:52.830Z,12.10
2023-04-03T15:47:38.960Z,12.40
2023-04-03T15:50:25.074Z,12.70
2023-04-03T15:53:10.722Z,12.70
2023-04-03T15:55:56.062Z,12.20
2023-04-03T15:58:41.597Z,12.10
2023-04-03T16:01:26.950Z,12.00
2023-04-03T16:04:13.334Z,12.00
2023-04-03T16:07:03.177Z,12.20
2023-04-03T16:09:48.772Z,11.90
2023-04-03T16:12:34.214Z,11.40
2023-04-03T16:15:19.696Z,11.30
2023-04-03T16:18:06.436Z,11.10
2023-04-03T16:20:51.670Z,10.70
2023-04-03T16:23:37.265Z,10.60
2023-04-03T16:26:22.566Z,10.60
2023-04-03T16:29:08.262Z,10.50
2023-04-03T16:31:53.975Z,10.30
2023-04-03T16:34:41.579Z,10.00
2023-04-03T16:37:28.555Z,9.90
2023-04-03T16:40:15.366Z,9.80
2023-04-03T16:43:02.019Z,9.60
2023-04-03T16:45:47.409Z,9.60
2023-04-03T16:48:32.900Z,9.40
2023-04-03T16:51:18.357Z,9.20
2023-04-03T16:54:03.759Z,8.90
2023-04-03T16:56:49.172Z,8.70
2023-04-03T16:59:34.662Z,8.70
2023-04-03T17:02:25.761Z,8.60
2023-04-03T17:05:11.148Z,8.40
2023-04-03T17:07:56.843Z,8.50
2023-04-03T17:10:42.005Z,8.70
2023-04-03T17:13:32.189Z,8.60
2023-04-03T17:16:17.921Z,8.50
2023-04-03T17:19:04.350Z,8.30
2023-04-03T17:21:49.748Z,8.30
2023-04-03T17:24:35.278Z,8.30
2023-04-03T17:27:20.347Z,8.40
2023-04-03T17:30:06.735Z,8.60
2023-04-03T17:32:52.051Z,8.60
2023-04-03T17:35:37.470Z,8.60
2023-04-03T17:38:23.091Z,8.50
2023-04-03T17:41:13.561Z,8.50
2023-04-03T17:43:58.611Z,8.20
2023-04-03T17:46:44.237Z,8.20
2023-04-03T17:49:29.410Z,8.00
2023-04-03T17:52:14.763Z,8.10
2023-04-03T17:55:00.318Z,8.00
2023-04-03T17:57:45.685Z,8.00
2023-04-03T18:00:31.023Z,7.90
2023-04-03T18:03:16.436Z,7.90
2023-04-03T18:06:14.816Z,8.00
2023-04-03T18:09:11.195Z,8.10
2023-04-03T18:11:57.558Z,8.10
2023-04-03T18:14:43.533Z,8.10
2023-04-03T18:17:28.959Z,7.90
2023-04-03T18:20:16.272Z,7.80
2023-04-03T18:23:01.361Z,7.70
2023-04-03T18:25:46.873Z,7.80
2023-04-03T18:28:32.341Z,7.90
2023-04-03T18:31:18.919Z,7.90
2023-04-03T18:34:05.939Z,8.00
2023-04-03T18:36:52.319Z,8.00
2023-04-03T18:39:37.911Z,7.90
2023-04-03T18:42:26.098Z,7.90
2023-04-03T18:45:13.373Z,7.90
2023-04-03T18:47:59.011Z,7.70
2023-04-03T18:50:45.374Z,7.80
2023-04-03T18:53:30.845Z,7.70
2023-04-03T18:56:16.503Z,7.70
2023-04-03T18:59:01.833Z,7.50
2023-04-03T19:01:47.489Z,7.60
2023-04-03T19:04:32.745Z,7.70
2023-04-03T19:07:18.290Z,7.70
2023-04-03T19:10:03.844Z,7.80
2023-04-03T19:12:51.101Z,7.80
2023-04-03T19:15:36.537Z,7.80
2023-04-03T19:18:21.914Z,7.80
2023-04-03T19:21:07.652Z,7.60
2023-04-03T19:23:53.120Z,7.70
2023-04-03T19:26:39.401Z,7.70
2023-04-03T19:29:24.533Z,7.60
2023-04-03T19:32:12.058Z,7.60
2023-04-03T19:34:59.880Z,7.70
2023-04-03T19:37:48.870Z,7.70
2023-04-03T19:40:35.442Z,7.60
2023-04-03T19:43:21.068Z,7.60
2023-04-03T19:46:07.276Z,7.60
2023-04-03T19:48:53.664Z,7.60
2023-04-03T19:51:39.154Z,7.40
2023-04-03T19:54:24.634Z,7.30
2023-04-03T19:57:10.065Z,7.20
2023-04-03T19:59:55.571Z,7.20
2023-04-03T20:02:40.812Z,7.20
2023-04-03T20:05:26.232Z,7.20
2023-04-03T20:08:11.745Z,7.20
2023-04-03T20:10:57.468Z,7.30
2023-04-03T20:13:42.917Z,7.30
2023-04-03T20:16:28.276Z,7.30
2023-04-03T20:19:14.028Z,7.20
2023-04-03T20:22:01.234Z,7.20
2023-04-03T20:24:46.663Z,7.20
2023-04-03T20:27:33.104Z,7.00
2023-04-03T20:30:18.895Z,7.10
2023-04-03T20:33:05.094Z,7.10
2023-04-03T20:35:50.554Z,7.10
2023-04-03T20:38:35.863Z,7.20
2023-04-03T20:41:20.932Z,7.20
2023-04-03T20:44:06.481Z,7.10
2023-04-03T20:46:53.823Z,7.10
2023-04-03T20:49:40.569Z,7.20
2023-04-03T20:52:29.186Z,7.20
2023-04-03T20:55:15.974Z,7.00
2023-04-03T20:58:01.791Z,7.00
2023-04-03T21:00:47.009Z,7.00
2023-04-03T21:03:32.379Z,7.10
2023-04-03T21:06:55.540Z,7.00
2023-04-03T21:10:18.563Z,6.90
2023-04-03T21:13:41.497Z,6.80
2023-04-03T21:16:27.239Z,6.90
2023-04-03T21:19:13.672Z,6.80
2023-04-03T21:22:02.429Z,6.90
2023-04-03T21:24:48.430Z,6.90
2023-04-03T21:27:33.629Z,6.90
2023-04-03T21:30:19.169Z,6.90
2023-04-03T21:33:04.910Z,6.80
2023-04-03T21:35:57.636Z,6.80
2023-04-03T21:38:45.225Z,6.80
2023-04-03T21:41:30.772Z,6.70
2023-04-03T21:44:16.753Z,6.60
2023-04-03T21:47:01.848Z,6.50
2023-04-03T21:49:48.172Z,6.60
2023-04-03T21:52:33.798Z,6.60
2023-04-03T21:55:19.717Z,6.60
2023-04-03T21:58:05.046Z,6.60
2023-04-03T22:00:51.003Z,6.70
2023-04-03T22:03:36.903Z,6.80
2023-04-03T22:06:22.263Z,6.80
2023-04-03T22:09:07.957Z,6.70
2023-04-03T22:11:53.141Z,6.70
2023-04-03T22:14:39.359Z,6.60
2023-04-03T22:17:24.378Z,6.60
2023-04-03T22:20:10.153Z,6.60
2023-04-03T22:22:55.431Z,6.70
2023-04-03T22:25:40.906Z,6.70
2023-04-03T22:28:27.531Z,6.60
2023-04-03T22:31:14.310Z,6.60
2023-04-03T22:34:04.031Z,6.70
2023-04-03T22:36:49.282Z,6.60
2023-04-03T22:39:34.521Z,6.60
2023-04-03T22:42:19.879Z,6.50
2023-04-03T22:45:06.658Z,6.50
2023-04-03T22:47:51.990Z,6.40
2023-04-03T22:50:39.860Z,6.50
2023-04-03T22:53:25.375Z,6.40
2023-04-03T22:56:10.994Z,6.40
2023-04-03T22:58:57.165Z,6.10
2023-04-03T23:01:42.645Z,6.10
2023-04-03T23:04:28.110Z,6.00
2023-04-03T23:07:13.385Z,6.00
2023-04-03T23:09:58.830Z,6.00
2023-04-03T23:12:44.192Z,5.90
2023-04-03T23:15:29.457Z,5.80
2023-04-03T23:18:14.866Z,5.90
2023-04-03T23:21:01.474Z,5.90
2023-04-03T23:23:47.012Z,5.90
2023-04-03T23:26:32.456Z,5.80
2023-04-03T23:29:17.741Z,5.90
2023-04-03T23:32:03.169Z,5.90
2023-04-03T23:34:48.422Z,5.90
2023-04-03T23:37:33.795Z,6.00
2023-04-03T23:40:19.294Z,6.00
2023-04-03T23:43:04.679Z,6.00
2023-04-03T23:45:50.480Z,6.10
2023-04-03T23:48:35.449Z,6.00
2023-04-03T23:51:21.493Z,6.00
2023-04-03T23:54:06.823Z,6.00
2023-04-03T23:56:52.060Z,6.00
2023-04-03T23:59:37.877Z,6.00
